sensor_id;sensor_type;location;lat;lon;timestamp;P1;durP1;ratioP1;P2;durP2;ratioP2
35795;SDS011;21916;52.428;13.302;2023-04-25T00:01:40;6.90;;;3.63;;
35795;SDS011;21916;52.428;13.302;2023-04-25T00:04:06;4.40;;;2.03;;
35795;SDS011;21916;52.428;13.302;2023-04-25T00:06:35;3.80;;;1.60;;
35795;SDS011;21916;52.428;13.302;2023-04-25T00:09:02;4.45;;;1.95;;
35795;SDS011;21916;52.428;13.302;2023-04-25T00:11:29;4.80;;;2.22;;
35795;SDS011;21916;52.428;13.302;2023-04-25T00:13:56;9.98;;;2.83;;
35795;SDS011;21916;52.428;13.302;2023-04-25T00:16:22;4.05;;;1.92;;
35795;SDS011;21916;52.428;13.302;2023-04-25T00:18:49;6.03;;;2.22;;
35795;SDS011;21916;52.428;13.302;2023-04-25T00:21:19;5.90;;;2.60;;
35795;SDS011;21916;52.428;13.302;2023-04-25T00:23:45;6.85;;;2.40;;
35795;SDS011;21916;52.428;13.302;2023-04-25T00:26:12;6.40;;;2.75;;
35795;SDS011;21916;52.428;13.302;2023-04-25T00:28:41;8.02;;;3.35;;
35795;SDS011;21916;52.428;13.302;2023-04-25T00:31:07;7.05;;;2.58;;
35795;SDS011;21916;52.428;13.302;2023-04-25T00:33:33;4.88;;;2.67;;
35795;SDS011;21916;52.428;13.302;2023-04-25T00:36:00;6.95;;;2.67;;
35795;SDS011;21916;52.428;13.302;2023-04-25T00:38:26;7.93;;;2.55;;
35795;SDS011;21916;52.428;13.302;2023-04-25T00:40:52;7.63;;;3.33;;
35795;SDS011;21916;52.428;13.302;2023-04-25T00:43:18;7.80;;;3.00;;
35795;SDS011;21916;52.428;13.302;2023-04-25T00:45:44;4.85;;;2.97;;
35795;SDS011;21916;52.428;13.302;2023-04-25T00:48:14;5.78;;;2.63;;
35795;SDS011;21916;52.428;13.302;2023-04-25T00:50:40;10.68;;;3.65;;
35795;SDS011;21916;52.428;13.302;2023-04-25T00:53:10;9.45;;;2.75;;
35795;SDS011;21916;52.428;13.302;2023-04-25T00:55:36;10.13;;;3.03;;
35795;SDS011;21916;52.428;13.302;2023-04-25T00:58:02;7.15;;;3.60;;
35795;SDS011;21916;52.428;13.302;2023-04-25T01:00:29;12.52;;;3.95;;
35795;SDS011;21916;52.428;13.302;2023-04-25T01:02:55;6.50;;;2.80;;
35795;SDS011;21916;52.428;13.302;2023-04-25T01:05:21;8.63;;;3.58;;
35795;SDS011;21916;52.428;13.302;2023-04-25T01:07:47;8.88;;;3.67;;
35795;SDS011;21916;52.428;13.302;2023-04-25T01:10:14;10.15;;;3.85;;
35795;SDS011;21916;52.428;13.302;2023-04-25T01:12:40;5.28;;;2.45;;
35795;SDS011;21916;52.428;13.302;2023-04-25T01:15:07;7.00;;;2.85;;
35795;SDS011;21916;52.428;13.302;2023-04-25T01:17:33;6.53;;;2.70;;
35795;SDS011;21916;52.428;13.302;2023-04-25T01:20:01;5.03;;;2.65;;
35795;SDS011;21916;52.428;13.302;2023-04-25T01:22:32;5.70;;;2.73;;
35795;SDS011;21916;52.428;13.302;2023-04-25T01:24:59;9.38;;;3.10;;
35795;SDS011;21916;52.428;13.302;2023-04-25T01:27:26;11.63;;;3.28;;
35795;SDS011;21916;52.428;13.302;2023-04-25T01:29:54;10.02;;;3.38;;
35795;SDS011;21916;52.428;13.302;2023-04-25T01:32:22;12.23;;;2.78;;
35795;SDS011;21916;52.428;13.302;2023-04-25T01:34:48;6.88;;;3.08;;
35795;SDS011;21916;52.428;13.302;2023-04-25T01:37:14;9.25;;;3.28;;
35795;SDS011;21916;52.428;13.302;2023-04-25T01:39:43;8.10;;;2.90;;
35795;SDS011;21916;52.428;13.302;2023-04-25T01:42:10;9.88;;;3.72;;
35795;SDS011;21916;52.428;13.302;2023-04-25T01:44:36;8.23;;;3.58;;
35795;SDS011;21916;52.428;13.302;2023-04-25T01:47:01;7.90;;;3.30;;
35795;SDS011;21916;52.428;13.302;2023-04-25T01:49:28;7.30;;;3.40;;
35795;SDS011;21916;52.428;13.302;2023-04-25T01:51:54;5.85;;;2.85;;
35795;SDS011;21916;52.428;13.302;2023-04-25T01:54:20;6.28;;;2.90;;
35795;SDS011;21916;52.428;13.302;2023-04-25T01:56:50;7.78;;;3.65;;
35795;SDS011;21916;52.428;13.302;2023-04-25T01:59:18;8.20;;;3.42;;
35795;SDS011;21916;52.428;13.302;2023-04-25T02:01:45;9.30;;;3.30;;
35795;SDS011;21916;52.428;13.302;2023-04-25T02:04:22;7.28;;;3.20;;
35795;SDS011;21916;52.428;13.302;2023-04-25T02:06:48;8.35;;;3.80;;
35795;SDS011;21916;52.428;13.302;2023-04-25T02:09:14;9.10;;;4.35;;
35795;SDS011;21916;52.428;13.302;2023-04-25T02:11:45;8.90;;;4.38;;
35795;SDS011;21916;52.428;13.302;2023-04-25T02:14:34;12.20;;;3.45;;
35795;SDS011;21916;52.428;13.302;2023-04-25T02:17:09;8.93;;;3.50;;
35795;SDS011;21916;52.428;13.302;2023-04-25T02:19:35;7.03;;;3.20;;
35795;SDS011;21916;52.428;13.302;2023-04-25T02:22:01;6.43;;;3.75;;
35795;SDS011;21916;52.428;13.302;2023-04-25T02:24:27;7.15;;;3.53;;
35795;SDS011;21916;52.428;13.302;2023-04-25T02:26:55;11.80;;;3.60;;
35795;SDS011;21916;52.428;13.302;2023-04-25T02:29:21;10.10;;;3.63;;
35795;SDS011;21916;52.428;13.302;2023-04-25T02:31:48;6.07;;;3.28;;
35795;SDS011;21916;52.428;13.302;2023-04-25T02:34:16;9.93;;;4.63;;
35795;SDS011;21916;52.428;13.302;2023-04-25T02:36:42;10.13;;;4.22;;
35795;SDS011;21916;52.428;13.302;2023-04-25T02:39:08;10.05;;;4.15;;
35795;SDS011;21916;52.428;13.302;2023-04-25T02:41:34;11.57;;;4.28;;
35795;SDS011;21916;52.428;13.302;2023-04-25T02:44:00;7.97;;;4.25;;
35795;SDS011;21916;52.428;13.302;2023-04-25T02:46:26;9.70;;;4.10;;
35795;SDS011;21916;52.428;13.302;2023-04-25T02:48:52;11.63;;;4.50;;
35795;SDS011;21916;52.428;13.302;2023-04-25T02:51:17;11.00;;;4.32;;
35795;SDS011;21916;52.428;13.302;2023-04-25T02:53:44;9.32;;;4.10;;
35795;SDS011;21916;52.428;13.302;2023-04-25T02:56:10;7.70;;;4.43;;
35795;SDS011;21916;52.428;13.302;2023-04-25T02:58:36;12.85;;;5.57;;
35795;SDS011;21916;52.428;13.302;2023-04-25T03:01:02;8.70;;;4.30;;
35795;SDS011;21916;52.428;13.302;2023-04-25T03:03:28;9.15;;;4.13;;
35795;SDS011;21916;52.428;13.302;2023-04-25T03:05:54;21.48;;;4.82;;
35795;SDS011;21916;52.428;13.302;2023-04-25T03:08:25;13.05;;;4.00;;
35795;SDS011;21916;52.428;13.302;2023-04-25T03:10:54;9.45;;;4.88;;
35795;SDS011;21916;52.428;13.302;2023-04-25T03:13:21;8.80;;;3.70;;
35795;SDS011;21916;52.428;13.302;2023-04-25T03:15:47;11.27;;;4.20;;
35795;SDS011;21916;52.428;13.302;2023-04-25T03:18:13;10.68;;;4.60;;
35795;SDS011;21916;52.428;13.302;2023-04-25T03:20:39;11.85;;;5.45;;
35795;SDS011;21916;52.428;13.302;2023-04-25T03:23:08;7.53;;;3.80;;
35795;SDS011;21916;52.428;13.302;2023-04-25T03:25:34;8.48;;;4.30;;
35795;SDS011;21916;52.428;13.302;2023-04-25T03:28:00;8.82;;;4.65;;
35795;SDS011;21916;52.428;13.302;2023-04-25T03:30:26;9.93;;;4.57;;
35795;SDS011;21916;52.428;13.302;2023-04-25T03:32:52;12.07;;;4.40;;
35795;SDS011;21916;52.428;13.302;2023-04-25T03:35:18;14.45;;;5.40;;
35795;SDS011;21916;52.428;13.302;2023-04-25T03:37:45;9.75;;;4.15;;
35795;SDS011;21916;52.428;13.302;2023-04-25T03:40:14;9.50;;;4.43;;
35795;SDS011;21916;52.428;13.302;2023-04-25T03:43:05;8.40;;;4.03;;
35795;SDS011;21916;52.428;13.302;2023-04-25T03:45:38;8.45;;;4.68;;
35795;SDS011;21916;52.428;13.302;2023-04-25T03:48:04;11.23;;;3.40;;
35795;SDS011;21916;52.428;13.302;2023-04-25T03:50:30;11.38;;;5.13;;
35795;SDS011;21916;52.428;13.302;2023-04-25T03:52:56;11.57;;;4.35;;
35795;SDS011;21916;52.428;13.302;2023-04-25T03:55:25;7.68;;;3.92;;
35795;SDS011;21916;52.428;13.302;2023-04-25T03:57:52;8.15;;;4.45;;
35795;SDS011;21916;52.428;13.302;2023-04-25T04:00:18;9.63;;;4.93;;
35795;SDS011;21916;52.428;13.302;2023-04-25T04:02:44;7.03;;;4.40;;
35795;SDS011;21916;52.428;13.302;2023-04-25T04:05:10;10.82;;;5.07;;
35795;SDS011;21916;52.428;13.302;2023-04-25T04:07:41;10.55;;;4.70;;
35795;SDS011;21916;52.428;13.302;2023-04-25T04:10:10;9.27;;;4.80;;
35795;SDS011;21916;52.428;13.302;2023-04-25T04:12:39;16.23;;;5.55;;
35795;SDS011;21916;52.428;13.302;2023-04-25T04:15:06;9.38;;;4.78;;
35795;SDS011;21916;52.428;13.302;2023-04-25T04:17:33;13.32;;;5.13;;
35795;SDS011;21916;52.428;13.302;2023-04-25T04:20:00;9.95;;;4.63;;
35795;SDS011;21916;52.428;13.302;2023-04-25T04:22:29;9.05;;;4.35;;
35795;SDS011;21916;52.428;13.302;2023-04-25T04:25:01;10.52;;;4.75;;
35795;SDS011;21916;52.428;13.302;2023-04-25T04:27:46;10.52;;;4.97;;
35795;SDS011;21916;52.428;13.302;2023-04-25T04:30:25;9.05;;;4.93;;
35795;SDS011;21916;52.428;13.302;2023-04-25T04:32:57;12.65;;;5.38;;
35795;SDS011;21916;52.428;13.302;2023-04-25T04:35:23;9.52;;;5.53;;
35795;SDS011;21916;52.428;13.302;2023-04-25T04:37:57;8.68;;;4.82;;
35795;SDS011;21916;52.428;13.302;2023-04-25T04:40:27;11.88;;;5.05;;
35795;SDS011;21916;52.428;13.302;2023-04-25T04:43:01;9.15;;;5.68;;
35795;SDS011;21916;52.428;13.302;2023-04-25T04:45:27;13.23;;;4.93;;
35795;SDS011;21916;52.428;13.302;2023-04-25T04:48:07;12.05;;;5.60;;
35795;SDS011;21916;52.428;13.302;2023-04-25T04:50:52;9.70;;;4.72;;
35795;SDS011;21916;52.428;13.302;2023-04-25T04:53:37;10.65;;;4.75;;
35795;SDS011;21916;52.428;13.302;2023-04-25T04:56:18;12.50;;;5.28;;
35795;SDS011;21916;52.428;13.302;2023-04-25T04:58:48;11.55;;;5.15;;
35795;SDS011;21916;52.428;13.302;2023-04-25T05:01:37;9.93;;;4.95;;
35795;SDS011;21916;52.428;13.302;2023-04-25T05:04:17;9.82;;;5.22;;
35795;SDS011;21916;52.428;13.302;2023-04-25T05:06:59;14.80;;;5.32;;
35795;SDS011;21916;52.428;13.302;2023-04-25T05:09:47;11.48;;;6.22;;
35795;SDS011;21916;52.428;13.302;2023-04-25T05:12:36;9.05;;;5.00;;
35795;SDS011;21916;52.428;13.302;2023-04-25T05:15:17;15.27;;;5.45;;
35795;SDS011;21916;52.428;13.302;2023-04-25T05:17:51;11.43;;;5.10;;
35795;SDS011;21916;52.428;13.302;2023-04-25T05:20:40;12.23;;;5.18;;
35795;SDS011;21916;52.428;13.302;2023-04-25T05:23:20;11.70;;;5.00;;
35795;SDS011;21916;52.428;13.302;2023-04-25T05:26:02;7.95;;;4.53;;
35795;SDS011;21916;52.428;13.302;2023-04-25T05:28:34;13.05;;;5.80;;
35795;SDS011;21916;52.428;13.302;2023-04-25T05:31:29;7.38;;;4.78;;
35795;SDS011;21916;52.428;13.302;2023-04-25T05:34:01;9.93;;;4.78;;
35795;SDS011;21916;52.428;13.302;2023-04-25T05:36:39;14.35;;;4.97;;
35795;SDS011;21916;52.428;13.302;2023-04-25T05:39:05;10.57;;;5.22;;
35795;SDS011;21916;52.428;13.302;2023-04-25T05:42:03;10.30;;;4.88;;
35795;SDS011;21916;52.428;13.302;2023-04-25T05:44:56;15.48;;;5.88;;
35795;SDS011;21916;52.428;13.302;2023-04-25T05:47:29;11.05;;;5.15;;
35795;SDS011;21916;52.428;13.302;2023-04-25T05:50:24;11.48;;;5.20;;
35795;SDS011;21916;52.428;13.302;2023-04-25T05:52:57;14.88;;;5.22;;
35795;SDS011;21916;52.428;13.302;2023-04-25T05:55:27;12.70;;;6.00;;
35795;SDS011;21916;52.428;13.302;2023-04-25T05:57:53;12.43;;;5.72;;
35795;SDS011;21916;52.428;13.302;2023-04-25T06:00:21;12.75;;;5.55;;
35795;SDS011;21916;52.428;13.302;2023-04-25T06:02:48;13.82;;;6.50;;
35795;SDS011;21916;52.428;13.302;2023-04-25T06:05:14;16.65;;;6.35;;
35795;SDS011;21916;52.428;13.302;2023-04-25T06:07:40;12.85;;;6.18;;
35795;SDS011;21916;52.428;13.302;2023-04-25T06:10:06;13.43;;;5.68;;
35795;SDS011;21916;52.428;13.302;2023-04-25T06:12:33;13.10;;;5.88;;
35795;SDS011;21916;52.428;13.302;2023-04-25T06:14:59;13.98;;;6.68;;
35795;SDS011;21916;52.428;13.302;2023-04-25T06:17:26;12.68;;;5.78;;
35795;SDS011;21916;52.428;13.302;2023-04-25T06:19:52;16.15;;;4.93;;
35795;SDS011;21916;52.428;13.302;2023-04-25T06:22:18;12.90;;;5.00;;
35795;SDS011;21916;52.428;13.302;2023-04-25T06:24:44;11.48;;;5.28;;
35795;SDS011;21916;52.428;13.302;2023-04-25T06:27:11;13.85;;;6.45;;
35795;SDS011;21916;52.428;13.302;2023-04-25T06:29:38;11.70;;;5.35;;
35795;SDS011;21916;52.428;13.302;2023-04-25T06:32:04;12.48;;;6.00;;
35795;SDS011;21916;52.428;13.302;2023-04-25T06:34:30;13.68;;;6.45;;
35795;SDS011;21916;52.428;13.302;2023-04-25T06:36:57;11.10;;;4.65;;
35795;SDS011;21916;52.428;13.302;2023-04-25T06:39:23;12.07;;;6.22;;
35795;SDS011;21916;52.428;13.302;2023-04-25T06:41:50;10.23;;;4.05;;
35795;SDS011;21916;52.428;13.302;2023-04-25T06:44:34;18.60;;;6.68;;
35795;SDS011;21916;52.428;13.302;2023-04-25T06:47:02;10.93;;;5.88;;
35795;SDS011;21916;52.428;13.302;2023-04-25T06:49:28;7.10;;;4.05;;
35795;SDS011;21916;52.428;13.302;2023-04-25T06:51:57;11.80;;;4.47;;
35795;SDS011;21916;52.428;13.302;2023-04-25T06:54:23;9.50;;;4.93;;
35795;SDS011;21916;52.428;13.302;2023-04-25T06:57:05;8.98;;;5.43;;
35795;SDS011;21916;52.428;13.302;2023-04-25T06:59:32;10.25;;;4.57;;
35795;SDS011;21916;52.428;13.302;2023-04-25T07:01:59;10.75;;;5.03;;
35795;SDS011;21916;52.428;13.302;2023-04-25T07:04:25;8.13;;;5.20;;
35795;SDS011;21916;52.428;13.302;2023-04-25T07:06:54;6.70;;;3.28;;
35795;SDS011;21916;52.428;13.302;2023-04-25T07:09:27;8.68;;;4.43;;
35795;SDS011;21916;52.428;13.302;2023-04-25T07:11:54;10.52;;;4.57;;
35795;SDS011;21916;52.428;13.302;2023-04-25T07:14:20;9.10;;;4.60;;
35795;SDS011;21916;52.428;13.302;2023-04-25T07:16:46;6.20;;;3.65;;
35795;SDS011;21916;52.428;13.302;2023-04-25T07:19:12;8.95;;;5.15;;
35795;SDS011;21916;52.428;13.302;2023-04-25T07:21:38;6.72;;;2.97;;
35795;SDS011;21916;52.428;13.302;2023-04-25T07:24:05;7.97;;;4.32;;
35795;SDS011;21916;52.428;13.302;2023-04-25T07:26:35;10.43;;;4.45;;
35795;SDS011;21916;52.428;13.302;2023-04-25T07:29:39;14.00;;;4.72;;
35795;SDS011;21916;52.428;13.302;2023-04-25T07:32:05;8.75;;;3.33;;
35795;SDS011;21916;52.428;13.302;2023-04-25T07:34:31;14.20;;;4.75;;
35795;SDS011;21916;52.428;13.302;2023-04-25T07:36:58;9.02;;;4.35;;
35795;SDS011;21916;52.428;13.302;2023-04-25T07:39:27;6.22;;;4.13;;
35795;SDS011;21916;52.428;13.302;2023-04-25T07:41:53;11.13;;;4.50;;
35795;SDS011;21916;52.428;13.302;2023-04-25T07:44:23;11.27;;;5.18;;
35795;SDS011;21916;52.428;13.302;2023-04-25T07:46:50;11.27;;;4.15;;
35795;SDS011;21916;52.428;13.302;2023-04-25T07:49:16;12.93;;;4.18;;
35795;SDS011;21916;52.428;13.302;2023-04-25T07:51:43;17.20;;;4.78;;
35795;SDS011;21916;52.428;13.302;2023-04-25T07:54:13;11.88;;;4.90;;
35795;SDS011;21916;52.428;13.302;2023-04-25T07:56:44;14.50;;;4.88;;
35795;SDS011;21916;52.428;13.302;2023-04-25T07:59:10;12.95;;;4.53;;
35795;SDS011;21916;52.428;13.302;2023-04-25T08:01:38;17.98;;;5.35;;
35795;SDS011;21916;52.428;13.302;2023-04-25T08:04:06;15.55;;;4.65;;
35795;SDS011;21916;52.428;13.302;2023-04-25T08:06:52;9.15;;;3.38;;
35795;SDS011;21916;52.428;13.302;2023-04-25T08:09:23;12.63;;;4.57;;
35795;SDS011;21916;52.428;13.302;2023-04-25T08:11:50;8.27;;;3.70;;
35795;SDS011;21916;52.428;13.302;2023-04-25T08:14:20;13.95;;;5.35;;
35795;SDS011;21916;52.428;13.302;2023-04-25T08:16:47;19.15;;;4.25;;
35795;SDS011;21916;52.428;13.302;2023-04-25T08:19:13;14.98;;;5.55;;
35795;SDS011;21916;52.428;13.302;2023-04-25T08:21:39;14.05;;;4.25;;
35795;SDS011;21916;52.428;13.302;2023-04-25T08:24:10;13.60;;;3.92;;
35795;SDS011;21916;52.428;13.302;2023-04-25T08:26:38;24.45;;;3.88;;
35795;SDS011;21916;52.428;13.302;2023-04-25T08:29:05;15.80;;;3.35;;
35795;SDS011;21916;52.428;13.302;2023-04-25T08:31:32;10.57;;;3.70;;
35795;SDS011;21916;52.428;13.302;2023-04-25T08:34:01;7.78;;;2.55;;
35795;SDS011;21916;52.428;13.302;2023-04-25T08:36:32;21.08;;;2.60;;
35795;SDS011;21916;52.428;13.302;2023-04-25T08:38:59;17.75;;;4.82;;
35795;SDS011;21916;52.428;13.302;2023-04-25T08:41:25;10.57;;;2.90;;
35795;SDS011;21916;52.428;13.302;2023-04-25T08:43:52;12.32;;;3.70;;
35795;SDS011;21916;52.428;13.302;2023-04-25T08:46:22;11.27;;;2.92;;
35795;SDS011;21916;52.428;13.302;2023-04-25T08:49:12;21.90;;;3.30;;
35795;SDS011;21916;52.428;13.302;2023-04-25T08:51:43;14.30;;;2.17;;
35795;SDS011;21916;52.428;13.302;2023-04-25T08:54:18;15.52;;;3.08;;
35795;SDS011;21916;52.428;13.302;2023-04-25T08:56:51;11.68;;;3.10;;
35795;SDS011;21916;52.428;13.302;2023-04-25T08:59:17;12.55;;;4.13;;
35795;SDS011;21916;52.428;13.302;2023-04-25T09:01:45;11.27;;;2.50;;
35795;SDS011;21916;52.428;13.302;2023-04-25T09:04:11;10.63;;;2.35;;
35795;SDS011;21916;52.428;13.302;2023-04-25T09:06:38;15.45;;;3.72;;
35795;SDS011;21916;52.428;13.302;2023-04-25T09:09:05;11.90;;;2.13;;
35795;SDS011;21916;52.428;13.302;2023-04-25T09:11:33;19.63;;;3.15;;
35795;SDS011;21916;52.428;13.302;2023-04-25T09:14:14;15.15;;;2.00;;
35795;SDS011;21916;52.428;13.302;2023-04-25T09:19:46;9.98;;;2.53;;
35795;SDS011;21916;52.428;13.302;2023-04-25T09:22:32;12.80;;;3.28;;
35795;SDS011;21916;52.428;13.302;2023-04-25T09:24:58;14.65;;;4.40;;
35795;SDS011;21916;52.428;13.302;2023-04-25T09:27:29;11.65;;;3.40;;
35795;SDS011;21916;52.428;13.302;2023-04-25T09:30:06;16.83;;;4.45;;
35795;SDS011;21916;52.428;13.302;2023-04-25T09:33:06;12.02;;;2.50;;
35795;SDS011;21916;52.428;13.302;2023-04-25T09:35:37;16.17;;;3.42;;
35795;SDS011;21916;52.428;13.302;2023-04-25T09:38:44;19.67;;;4.13;;
35795;SDS011;21916;52.428;13.302;2023-04-25T09:41:21;13.38;;;3.67;;
35795;SDS011;21916;52.428;13.302;2023-04-25T09:43:52;9.68;;;2.88;;
35795;SDS011;21916;52.428;13.302;2023-04-25T09:46:32;8.90;;;3.70;;
35795;SDS011;21916;52.428;13.302;2023-04-25T09:49:10;15.93;;;3.20;;
35795;SDS011;21916;52.428;13.302;2023-04-25T09:51:58;8.30;;;2.35;;
35795;SDS011;21916;52.428;13.302;2023-04-25T09:54:31;10.40;;;2.42;;
35795;SDS011;21916;52.428;13.302;2023-04-25T09:57:12;13.02;;;2.33;;
35795;SDS011;21916;52.428;13.302;2023-04-25T09:59:49;14.88;;;2.50;;
35795;SDS011;21916;52.428;13.302;2023-04-25T10:02:18;14.82;;;2.80;;
35795;SDS011;21916;52.428;13.302;2023-04-25T10:04:49;10.15;;;2.50;;
35795;SDS011;21916;52.428;13.302;2023-04-25T10:09:53;9.45;;;2.50;;
35795;SDS011;21916;52.428;13.302;2023-04-25T10:12:24;12.90;;;2.35;;
35795;SDS011;21916;52.428;13.302;2023-04-25T10:14:52;6.15;;;1.73;;
35795;SDS011;21916;52.428;13.302;2023-04-25T10:17:17;13.60;;;2.55;;
35795;SDS011;21916;52.428;13.302;2023-04-25T10:19:46;9.30;;;2.50;;
35795;SDS011;21916;52.428;13.302;2023-04-25T10:22:32;16.80;;;3.10;;
35795;SDS011;21916;52.428;13.302;2023-04-25T10:25:01;4.78;;;1.63;;
35795;SDS011;21916;52.428;13.302;2023-04-25T10:27:31;9.40;;;2.13;;
35795;SDS011;21916;52.428;13.302;2023-04-25T10:30:03;10.02;;;2.10;;
35795;SDS011;21916;52.428;13.302;2023-04-25T10:32:35;10.90;;;2.20;;
35795;SDS011;21916;52.428;13.302;2023-04-25T10:35:14;8.43;;;2.30;;
35795;SDS011;21916;52.428;13.302;2023-04-25T10:40:25;9.38;;;2.10;;
35795;SDS011;21916;52.428;13.302;2023-04-25T10:42:52;7.03;;;2.40;;
35795;SDS011;21916;52.428;13.302;2023-04-25T10:45:19;8.20;;;2.95;;
35795;SDS011;21916;52.428;13.302;2023-04-25T10:47:45;4.53;;;1.50;;
35795;SDS011;21916;52.428;13.302;2023-04-25T10:50:14;7.55;;;1.90;;
35795;SDS011;21916;52.428;13.302;2023-04-25T10:52:43;11.95;;;3.10;;
35795;SDS011;21916;52.428;13.302;2023-04-25T10:55:10;6.40;;;1.95;;
35795;SDS011;21916;52.428;13.302;2023-04-25T11:02:37;15.23;;;2.85;;
35795;SDS011;21916;52.428;13.302;2023-04-25T11:05:06;9.20;;;3.22;;
35795;SDS011;21916;52.428;13.302;2023-04-25T11:10:19;7.93;;;2.10;;
35795;SDS011;21916;52.428;13.302;2023-04-25T11:12:46;8.75;;;1.90;;
35795;SDS011;21916;52.428;13.302;2023-04-25T11:15:12;7.95;;;1.45;;
35795;SDS011;21916;52.428;13.302;2023-04-25T11:17:38;9.68;;;2.05;;
35795;SDS011;21916;52.428;13.302;2023-04-25T11:20:06;8.15;;;2.55;;
35795;SDS011;21916;52.428;13.302;2023-04-25T11:22:37;16.60;;;2.70;;
35795;SDS011;21916;52.428;13.302;2023-04-25T11:25:06;14.32;;;3.55;;
35795;SDS011;21916;52.428;13.302;2023-04-25T11:27:33;4.68;;;1.60;;
35795;SDS011;21916;52.428;13.302;2023-04-25T11:30:10;19.65;;;2.45;;
35795;SDS011;21916;52.428;13.302;2023-04-25T11:32:40;6.60;;;1.80;;
35795;SDS011;21916;52.428;13.302;2023-04-25T11:35:08;11.10;;;1.67;;
35795;SDS011;21916;52.428;13.302;2023-04-25T11:37:35;8.23;;;2.28;;
35795;SDS011;21916;52.428;13.302;2023-04-25T11:40:02;4.43;;;1.63;;
35795;SDS011;21916;52.428;13.302;2023-04-25T11:42:29;13.27;;;2.72;;
35795;SDS011;21916;52.428;13.302;2023-04-25T11:44:55;7.95;;;1.38;;
35795;SDS011;21916;52.428;13.302;2023-04-25T11:47:27;7.22;;;1.60;;
35795;SDS011;21916;52.428;13.302;2023-04-25T11:49:54;11.68;;;2.85;;
35795;SDS011;21916;52.428;13.302;2023-04-25T11:52:20;5.30;;;1.15;;
35795;SDS011;21916;52.428;13.302;2023-04-25T11:54:46;7.28;;;1.70;;
35795;SDS011;21916;52.428;13.302;2023-04-25T11:57:12;7.15;;;1.80;;
35795;SDS011;21916;52.428;13.302;2023-04-25T11:59:38;9.45;;;1.92;;
35795;SDS011;21916;52.428;13.302;2023-04-25T12:02:05;6.57;;;1.85;;
35795;SDS011;21916;52.428;13.302;2023-04-25T12:04:32;5.82;;;1.55;;
35795;SDS011;21916;52.428;13.302;2023-04-25T12:06:58;6.15;;;1.60;;
35795;SDS011;21916;52.428;13.302;2023-04-25T12:09:30;7.20;;;2.03;;
35795;SDS011;21916;52.428;13.302;2023-04-25T12:12:00;11.63;;;1.83;;
35795;SDS011;21916;52.428;13.302;2023-04-25T12:14:29;5.50;;;1.42;;
35795;SDS011;21916;52.428;13.302;2023-04-25T12:16:57;3.65;;;1.20;;
35795;SDS011;21916;52.428;13.302;2023-04-25T12:19:26;7.57;;;2.17;;
35795;SDS011;21916;52.428;13.302;2023-04-25T12:21:59;5.82;;;1.50;;
35795;SDS011;21916;52.428;13.302;2023-04-25T12:24:26;4.70;;;1.33;;
35795;SDS011;21916;52.428;13.302;2023-04-25T12:27:03;5.22;;;1.50;;
35795;SDS011;21916;52.428;13.302;2023-04-25T12:29:33;3.55;;;1.27;;
35795;SDS011;21916;52.428;13.302;2023-04-25T12:32:00;7.32;;;1.83;;
35795;SDS011;21916;52.428;13.302;2023-04-25T12:34:28;6.85;;;1.60;;
35795;SDS011;21916;52.428;13.302;2023-04-25T12:36:56;6.93;;;1.77;;
35795;SDS011;21916;52.428;13.302;2023-04-25T12:39:23;4.82;;;1.80;;
35795;SDS011;21916;52.428;13.302;2023-04-25T12:41:52;6.05;;;1.98;;
35795;SDS011;21916;52.428;13.302;2023-04-25T12:44:19;7.45;;;1.15;;
35795;SDS011;21916;52.428;13.302;2023-04-25T12:46:46;4.15;;;1.63;;
35795;SDS011;21916;52.428;13.302;2023-04-25T12:49:12;8.75;;;2.58;;
35795;SDS011;21916;52.428;13.302;2023-04-25T12:51:39;7.75;;;1.77;;
35795;SDS011;21916;52.428;13.302;2023-04-25T12:54:07;8.32;;;1.85;;
35795;SDS011;21916;52.428;13.302;2023-04-25T12:56:34;5.35;;;1.58;;
35795;SDS011;21916;52.428;13.302;2023-04-25T12:59:01;4.75;;;1.67;;
35795;SDS011;21916;52.428;13.302;2023-04-25T13:01:28;6.97;;;1.70;;
35795;SDS011;21916;52.428;13.302;2023-04-25T13:03:54;3.60;;;1.15;;
35795;SDS011;21916;52.428;13.302;2023-04-25T13:06:21;6.05;;;2.15;;
35795;SDS011;21916;52.428;13.302;2023-04-25T13:08:47;6.55;;;1.90;;
35795;SDS011;21916;52.428;13.302;2023-04-25T13:11:13;5.78;;;1.55;;
35795;SDS011;21916;52.428;13.302;2023-04-25T13:13:42;5.82;;;1.80;;
35795;SDS011;21916;52.428;13.302;2023-04-25T13:16:09;5.75;;;2.13;;
35795;SDS011;21916;52.428;13.302;2023-04-25T13:18:35;8.27;;;1.77;;
35795;SDS011;21916;52.428;13.302;2023-04-25T13:21:02;7.00;;;1.60;;
35795;SDS011;21916;52.428;13.302;2023-04-25T13:23:28;8.60;;;1.80;;
35795;SDS011;21916;52.428;13.302;2023-04-25T13:25:55;7.07;;;1.50;;
35795;SDS011;21916;52.428;13.302;2023-04-25T13:28:23;4.25;;;1.35;;
35795;SDS011;21916;52.428;13.302;2023-04-25T13:30:50;3.25;;;1.35;;
35795;SDS011;21916;52.428;13.302;2023-04-25T13:33:17;3.88;;;1.63;;
35795;SDS011;21916;52.428;13.302;2023-04-25T13:35:43;5.50;;;1.73;;
35795;SDS011;21916;52.428;13.302;2023-04-25T13:38:12;7.43;;;1.63;;
35795;SDS011;21916;52.428;13.302;2023-04-25T13:40:38;4.75;;;1.70;;
35795;SDS011;21916;52.428;13.302;2023-04-25T13:43:04;4.18;;;0.95;;
35795;SDS011;21916;52.428;13.302;2023-04-25T13:45:31;5.35;;;2.20;;
35795;SDS011;21916;52.428;13.302;2023-04-25T13:47:57;7.13;;;2.38;;
35795;SDS011;21916;52.428;13.302;2023-04-25T13:50:23;4.72;;;1.20;;
35795;SDS011;21916;52.428;13.302;2023-04-25T13:52:50;7.43;;;2.05;;
35795;SDS011;21916;52.428;13.302;2023-04-25T13:55:16;3.05;;;1.35;;
35795;SDS011;21916;52.428;13.302;2023-04-25T13:57:42;12.55;;;1.90;;
35795;SDS011;21916;52.428;13.302;2023-04-25T14:00:09;12.50;;;3.05;;
35795;SDS011;21916;52.428;13.302;2023-04-25T14:02:35;5.28;;;1.75;;
35795;SDS011;21916;52.428;13.302;2023-04-25T14:05:02;4.30;;;2.00;;
35795;SDS011;21916;52.428;13.302;2023-04-25T14:07:29;5.07;;;1.95;;
35795;SDS011;21916;52.428;13.302;2023-04-25T14:09:55;4.53;;;1.52;;
35795;SDS011;21916;52.428;13.302;2023-04-25T14:12:22;3.78;;;1.17;;
35795;SDS011;21916;52.428;13.302;2023-04-25T14:14:48;6.25;;;2.05;;
35795;SDS011;21916;52.428;13.302;2023-04-25T14:17:15;7.28;;;1.63;;
35795;SDS011;21916;52.428;13.302;2023-04-25T14:19:41;6.28;;;1.50;;
35795;SDS011;21916;52.428;13.302;2023-04-25T14:22:11;7.78;;;1.55;;
35795;SDS011;21916;52.428;13.302;2023-04-25T14:24:37;5.45;;;1.30;;
35795;SDS011;21916;52.428;13.302;2023-04-25T14:27:03;3.40;;;1.52;;
35795;SDS011;21916;52.428;13.302;2023-04-25T14:29:29;6.32;;;1.70;;
35795;SDS011;21916;52.428;13.302;2023-04-25T14:31:56;7.65;;;2.55;;
35795;SDS011;21916;52.428;13.302;2023-04-25T14:34:24;9.65;;;2.13;;
35795;SDS011;21916;52.428;13.302;2023-04-25T14:36:51;5.30;;;1.67;;
35795;SDS011;21916;52.428;13.302;2023-04-25T14:39:17;7.68;;;2.40;;
35795;SDS011;21916;52.428;13.302;2023-04-25T14:41:44;5.47;;;1.70;;
35795;SDS011;21916;52.428;13.302;2023-04-25T14:44:10;8.10;;;3.17;;
35795;SDS011;21916;52.428;13.302;2023-04-25T14:46:36;6.88;;;1.60;;
35795;SDS011;21916;52.428;13.302;2023-04-25T14:49:02;7.30;;;1.90;;
35795;SDS011;21916;52.428;13.302;2023-04-25T14:51:29;9.68;;;2.70;;
35795;SDS011;21916;52.428;13.302;2023-04-25T14:53:56;6.72;;;2.03;;
35795;SDS011;21916;52.428;13.302;2023-04-25T14:56:22;8.15;;;1.70;;
35795;SDS011;21916;52.428;13.302;2023-04-25T14:58:48;10.23;;;2.15;;